sensor_id;sensor_type;location;lat;lon;timestamp;P1;durP1;ratioP1;P2;durP2;ratioP2
52878;SDS011;38747;53.140;6.498;2022-08-24T00:00:56;45.83;;;33.83;;
52878;SDS011;38747;53.140;6.498;2022-08-24T00:03:22;43.27;;;30.77;;
52878;SDS011;38747;53.140;6.498;2022-08-24T00:05:48;43.65;;;32.13;;
52878;SDS011;38747;53.140;6.498;2022-08-24T00:08:14;44.50;;;32.88;;
52878;SDS011;38747;53.140;6.498;2022-08-24T00:10:40;41.67;;;30.83;;
52878;SDS011;38747;53.140;6.498;2022-08-24T00:13:05;39.03;;;28.33;;
52878;SDS011;38747;53.140;6.498;2022-08-24T00:15:31;37.60;;;28.52;;
52878;SDS011;38747;53.140;6.498;2022-08-24T00:17:57;39.50;;;28.13;;
52878;SDS011;38747;53.140;6.498;2022-08-24T00:20:24;43.05;;;28.75;;
52878;SDS011;38747;53.140;6.498;2022-08-24T00:22:50;38.70;;;28.98;;
52878;SDS011;38747;53.140;6.498;2022-08-24T00:25:16;38.53;;;28.40;;
52878;SDS011;38747;53.140;6.498;2022-08-24T00:27:43;36.77;;;26.93;;
52878;SDS011;38747;53.140;6.498;2022-08-24T00:30:11;40.42;;;29.08;;
52878;SDS011;38747;53.140;6.498;2022-08-24T00:32:40;39.53;;;28.00;;
52878;SDS011;38747;53.140;6.498;2022-08-24T00:35:06;38.22;;;28.40;;
52878;SDS011;38747;53.140;6.498;2022-08-24T00:37:34;38.33;;;27.77;;
52878;SDS011;38747;53.140;6.498;2022-08-24T00:40:00;38.17;;;27.53;;
52878;SDS011;38747;53.140;6.498;2022-08-24T00:42:32;39.28;;;27.85;;
52878;SDS011;38747;53.140;6.498;2022-08-24T00:44:58;39.80;;;29.75;;
52878;SDS011;38747;53.140;6.498;2022-08-24T00:47:25;37.40;;;27.70;;
52878;SDS011;38747;53.140;6.498;2022-08-24T00:49:56;40.38;;;29.80;;
52878;SDS011;38747;53.140;6.498;2022-08-24T00:52:28;37.25;;;27.98;;
52878;SDS011;38747;53.140;6.498;2022-08-24T00:55:03;38.53;;;27.60;;
52878;SDS011;38747;53.140;6.498;2022-08-24T00:57:32;37.40;;;27.57;;
52878;SDS011;38747;53.140;6.498;2022-08-24T01:00:08;37.55;;;27.33;;
52878;SDS011;38747;53.140;6.498;2022-08-24T01:02:36;37.35;;;27.85;;
52878;SDS011;38747;53.140;6.498;2022-08-24T01:05:06;37.35;;;26.88;;
52878;SDS011;38747;53.140;6.498;2022-08-24T01:07:34;37.33;;;27.10;;
52878;SDS011;38747;53.140;6.498;2022-08-24T01:10:01;38.20;;;27.27;;
52878;SDS011;38747;53.140;6.498;2022-08-24T01:12:30;39.92;;;28.25;;
52878;SDS011;38747;53.140;6.498;2022-08-24T01:14:57;41.08;;;30.27;;
52878;SDS011;38747;53.140;6.498;2022-08-24T01:17:25;40.78;;;28.90;;
52878;SDS011;38747;53.140;6.498;2022-08-24T01:20:09;38.97;;;28.73;;
52878;SDS011;38747;53.140;6.498;2022-08-24T01:25:02;36.47;;;27.42;;
52878;SDS011;38747;53.140;6.498;2022-08-24T01:27:29;36.55;;;27.23;;
52878;SDS011;38747;53.140;6.498;2022-08-24T01:29:56;37.47;;;27.60;;
52878;SDS011;38747;53.140;6.498;2022-08-24T01:32:24;34.20;;;25.88;;
52878;SDS011;38747;53.140;6.498;2022-08-24T01:34:52;36.63;;;27.23;;
52878;SDS011;38747;53.140;6.498;2022-08-24T01:37:18;41.78;;;28.27;;
52878;SDS011;38747;53.140;6.498;2022-08-24T01:39:45;37.47;;;27.08;;
52878;SDS011;38747;53.140;6.498;2022-08-24T01:42:13;36.20;;;26.97;;
52878;SDS011;38747;53.140;6.498;2022-08-24T01:44:39;38.22;;;27.63;;
52878;SDS011;38747;53.140;6.498;2022-08-24T01:47:07;35.65;;;27.13;;
52878;SDS011;38747;53.140;6.498;2022-08-24T01:49:36;38.10;;;26.48;;
52878;SDS011;38747;53.140;6.498;2022-08-24T01:52:06;33.42;;;24.73;;
52878;SDS011;38747;53.140;6.498;2022-08-24T01:54:34;30.67;;;22.93;;
52878;SDS011;38747;53.140;6.498;2022-08-24T01:57:00;31.00;;;22.55;;
52878;SDS011;38747;53.140;6.498;2022-08-24T01:59:25;30.33;;;22.90;;
52878;SDS011;38747;53.140;6.498;2022-08-24T02:01:52;29.60;;;22.15;;
52878;SDS011;38747;53.140;6.498;2022-08-24T02:04:21;31.73;;;23.20;;
52878;SDS011;38747;53.140;6.498;2022-08-24T02:06:47;33.33;;;23.63;;
52878;SDS011;38747;53.140;6.498;2022-08-24T02:09:13;30.13;;;22.88;;
52878;SDS011;38747;53.140;6.498;2022-08-24T02:11:39;29.03;;;22.10;;
52878;SDS011;38747;53.140;6.498;2022-08-24T02:14:05;29.58;;;22.23;;
52878;SDS011;38747;53.140;6.498;2022-08-24T02:16:31;28.20;;;21.58;;
52878;SDS011;38747;53.140;6.498;2022-08-24T02:18:57;27.60;;;21.15;;
52878;SDS011;38747;53.140;6.498;2022-08-24T02:21:24;26.53;;;21.10;;
52878;SDS011;38747;53.140;6.498;2022-08-24T02:23:50;28.60;;;21.33;;
52878;SDS011;38747;53.140;6.498;2022-08-24T02:26:16;27.05;;;21.73;;
52878;SDS011;38747;53.140;6.498;2022-08-24T02:28:42;29.67;;;23.27;;
52878;SDS011;38747;53.140;6.498;2022-08-24T02:31:08;29.13;;;21.73;;
52878;SDS011;38747;53.140;6.498;2022-08-24T02:33:35;28.23;;;21.90;;
52878;SDS011;38747;53.140;6.498;2022-08-24T02:36:03;28.27;;;22.55;;
52878;SDS011;38747;53.140;6.498;2022-08-24T02:38:30;32.28;;;23.27;;
52878;SDS011;38747;53.140;6.498;2022-08-24T02:40:56;29.02;;;22.13;;
52878;SDS011;38747;53.140;6.498;2022-08-24T02:43:22;28.50;;;21.53;;
52878;SDS011;38747;53.140;6.498;2022-08-24T02:45:48;29.02;;;21.45;;
52878;SDS011;38747;53.140;6.498;2022-08-24T02:48:15;26.13;;;20.40;;
52878;SDS011;38747;53.140;6.498;2022-08-24T02:50:43;25.63;;;19.25;;
52878;SDS011;38747;53.140;6.498;2022-08-24T02:53:10;25.30;;;19.23;;
52878;SDS011;38747;53.140;6.498;2022-08-24T02:55:38;26.35;;;20.67;;
52878;SDS011;38747;53.140;6.498;2022-08-24T02:58:05;27.00;;;21.65;;
52878;SDS011;38747;53.140;6.498;2022-08-24T03:00:32;29.00;;;21.58;;
52878;SDS011;38747;53.140;6.498;2022-08-24T03:03:00;27.63;;;22.08;;
52878;SDS011;38747;53.140;6.498;2022-08-24T03:05:25;26.13;;;20.73;;
52878;SDS011;38747;53.140;6.498;2022-08-24T03:07:51;26.17;;;20.40;;
52878;SDS011;38747;53.140;6.498;2022-08-24T03:10:17;24.27;;;19.67;;
52878;SDS011;38747;53.140;6.498;2022-08-24T03:12:43;23.60;;;19.45;;
52878;SDS011;38747;53.140;6.498;2022-08-24T03:15:09;22.93;;;19.33;;
52878;SDS011;38747;53.140;6.498;2022-08-24T03:17:35;23.48;;;20.25;;
52878;SDS011;38747;53.140;6.498;2022-08-24T03:20:04;22.83;;;18.95;;
52878;SDS011;38747;53.140;6.498;2022-08-24T03:22:34;24.10;;;20.35;;
52878;SDS011;38747;53.140;6.498;2022-08-24T03:25:00;22.97;;;19.67;;
52878;SDS011;38747;53.140;6.498;2022-08-24T03:27:25;22.25;;;18.80;;
52878;SDS011;38747;53.140;6.498;2022-08-24T03:29:51;23.37;;;19.53;;
52878;SDS011;38747;53.140;6.498;2022-08-24T03:32:16;23.43;;;19.83;;
52878;SDS011;38747;53.140;6.498;2022-08-24T03:34:42;23.33;;;19.50;;
52878;SDS011;38747;53.140;6.498;2022-08-24T03:37:08;20.98;;;18.63;;
52878;SDS011;38747;53.140;6.498;2022-08-24T03:39:34;22.30;;;19.47;;
52878;SDS011;38747;53.140;6.498;2022-08-24T03:41:59;20.75;;;18.40;;
52878;SDS011;38747;53.140;6.498;2022-08-24T03:44:25;21.27;;;18.58;;
52878;SDS011;38747;53.140;6.498;2022-08-24T03:46:51;21.63;;;18.57;;
52878;SDS011;38747;53.140;6.498;2022-08-24T03:49:18;20.30;;;18.13;;
52878;SDS011;38747;53.140;6.498;2022-08-24T03:51:44;18.70;;;16.70;;
52878;SDS011;38747;53.140;6.498;2022-08-24T03:54:10;20.38;;;16.45;;
52878;SDS011;38747;53.140;6.498;2022-08-24T03:56:37;19.10;;;17.02;;
52878;SDS011;38747;53.140;6.498;2022-08-24T03:59:03;20.23;;;17.20;;
52878;SDS011;38747;53.140;6.498;2022-08-24T04:01:30;18.83;;;16.83;;
52878;SDS011;38747;53.140;6.498;2022-08-24T04:03:55;19.98;;;16.73;;
52878;SDS011;38747;53.140;6.498;2022-08-24T04:06:21;19.57;;;16.47;;
52878;SDS011;38747;53.140;6.498;2022-08-24T04:08:47;18.00;;;16.10;;
52878;SDS011;38747;53.140;6.498;2022-08-24T04:11:14;17.98;;;15.85;;
52878;SDS011;38747;53.140;6.498;2022-08-24T04:13:42;18.00;;;16.10;;
52878;SDS011;38747;53.140;6.498;2022-08-24T04:16:10;18.40;;;15.95;;
52878;SDS011;38747;53.140;6.498;2022-08-24T04:18:38;20.08;;;16.92;;
52878;SDS011;38747;53.140;6.498;2022-08-24T04:21:04;19.15;;;16.40;;
52878;SDS011;38747;53.140;6.498;2022-08-24T04:23:30;19.05;;;16.83;;
52878;SDS011;38747;53.140;6.498;2022-08-24T04:26:00;19.53;;;16.83;;
52878;SDS011;38747;53.140;6.498;2022-08-24T04:28:28;21.35;;;17.67;;
52878;SDS011;38747;53.140;6.498;2022-08-24T04:30:54;20.70;;;17.27;;
52878;SDS011;38747;53.140;6.498;2022-08-24T04:33:21;19.88;;;16.60;;
52878;SDS011;38747;53.140;6.498;2022-08-24T04:35:47;19.08;;;16.50;;
52878;SDS011;38747;53.140;6.498;2022-08-24T04:38:17;19.70;;;16.63;;
52878;SDS011;38747;53.140;6.498;2022-08-24T04:40:45;19.42;;;17.05;;
52878;SDS011;38747;53.140;6.498;2022-08-24T04:43:11;19.27;;;17.17;;
52878;SDS011;38747;53.140;6.498;2022-08-24T04:45:43;19.85;;;16.77;;
52878;SDS011;38747;53.140;6.498;2022-08-24T04:48:11;20.35;;;17.33;;
52878;SDS011;38747;53.140;6.498;2022-08-24T04:50:38;23.47;;;17.20;;
52878;SDS011;38747;53.140;6.498;2022-08-24T04:53:05;21.70;;;17.70;;
52878;SDS011;38747;53.140;6.498;2022-08-24T04:55:32;20.00;;;17.27;;
52878;SDS011;38747;53.140;6.498;2022-08-24T04:58:05;22.50;;;18.42;;
52878;SDS011;38747;53.140;6.498;2022-08-24T05:00:31;21.77;;;18.03;;
52878;SDS011;38747;53.140;6.498;2022-08-24T05:02:57;21.95;;;18.40;;
52878;SDS011;38747;53.140;6.498;2022-08-24T05:05:22;23.00;;;18.97;;
52878;SDS011;38747;53.140;6.498;2022-08-24T05:07:48;21.08;;;17.42;;
52878;SDS011;38747;53.140;6.498;2022-08-24T05:10:14;20.10;;;17.58;;
52878;SDS011;38747;53.140;6.498;2022-08-24T05:12:40;19.70;;;17.33;;
52878;SDS011;38747;53.140;6.498;2022-08-24T05:15:06;22.50;;;18.58;;
52878;SDS011;38747;53.140;6.498;2022-08-24T05:17:32;23.60;;;18.88;;
52878;SDS011;38747;53.140;6.498;2022-08-24T05:19:58;22.60;;;18.50;;
52878;SDS011;38747;53.140;6.498;2022-08-24T05:22:23;23.10;;;19.10;;
52878;SDS011;38747;53.140;6.498;2022-08-24T05:24:49;23.97;;;19.73;;
52878;SDS011;38747;53.140;6.498;2022-08-24T05:27:15;25.35;;;20.30;;
52878;SDS011;38747;53.140;6.498;2022-08-24T05:29:43;24.33;;;20.73;;
52878;SDS011;38747;53.140;6.498;2022-08-24T05:32:09;26.88;;;21.20;;
52878;SDS011;38747;53.140;6.498;2022-08-24T05:34:35;26.83;;;21.40;;
52878;SDS011;38747;53.140;6.498;2022-08-24T05:37:00;23.60;;;19.60;;
52878;SDS011;38747;53.140;6.498;2022-08-24T05:39:26;27.10;;;20.93;;
52878;SDS011;38747;53.140;6.498;2022-08-24T05:41:52;24.92;;;19.73;;
52878;SDS011;38747;53.140;6.498;2022-08-24T05:44:18;27.93;;;21.17;;
52878;SDS011;38747;53.140;6.498;2022-08-24T05:46:44;26.27;;;19.77;;
52878;SDS011;38747;53.140;6.498;2022-08-24T05:49:10;27.88;;;20.65;;
52878;SDS011;38747;53.140;6.498;2022-08-24T05:51:36;24.90;;;19.97;;
52878;SDS011;38747;53.140;6.498;2022-08-24T05:54:04;26.67;;;20.70;;
52878;SDS011;38747;53.140;6.498;2022-08-24T05:56:30;25.75;;;20.27;;
52878;SDS011;38747;53.140;6.498;2022-08-24T05:58:55;26.83;;;21.00;;
52878;SDS011;38747;53.140;6.498;2022-08-24T06:01:22;26.25;;;20.25;;
52878;SDS011;38747;53.140;6.498;2022-08-24T06:03:49;25.55;;;20.25;;
52878;SDS011;38747;53.140;6.498;2022-08-24T06:06:19;29.33;;;22.60;;
52878;SDS011;38747;53.140;6.498;2022-08-24T06:08:46;33.22;;;24.00;;
52878;SDS011;38747;53.140;6.498;2022-08-24T06:13:50;38.67;;;28.00;;
52878;SDS011;38747;53.140;6.498;2022-08-24T06:16:16;39.70;;;27.58;;
52878;SDS011;38747;53.140;6.498;2022-08-24T06:18:42;40.30;;;28.80;;
52878;SDS011;38747;53.140;6.498;2022-08-24T06:21:09;39.33;;;28.30;;
52878;SDS011;38747;53.140;6.498;2022-08-24T06:23:36;38.63;;;28.42;;
52878;SDS011;38747;53.140;6.498;2022-08-24T06:26:03;37.20;;;27.80;;
52878;SDS011;38747;53.140;6.498;2022-08-24T06:28:48;36.75;;;27.92;;
52878;SDS011;38747;53.140;6.498;2022-08-24T06:31:14;40.17;;;29.50;;
52878;SDS011;38747;53.140;6.498;2022-08-24T06:33:41;42.88;;;29.90;;
52878;SDS011;38747;53.140;6.498;2022-08-24T06:36:06;42.90;;;29.45;;
52878;SDS011;38747;53.140;6.498;2022-08-24T06:38:32;41.77;;;31.80;;
52878;SDS011;38747;53.140;6.498;2022-08-24T06:40:58;44.20;;;31.75;;
52878;SDS011;38747;53.140;6.498;2022-08-24T06:43:24;42.23;;;31.80;;
52878;SDS011;38747;53.140;6.498;2022-08-24T06:45:50;38.35;;;30.10;;
52878;SDS011;38747;53.140;6.498;2022-08-24T06:48:16;38.97;;;30.33;;
52878;SDS011;38747;53.140;6.498;2022-08-24T06:50:42;41.38;;;29.17;;
52878;SDS011;38747;53.140;6.498;2022-08-24T06:53:08;39.70;;;29.70;;
52878;SDS011;38747;53.140;6.498;2022-08-24T06:55:42;38.28;;;29.60;;
52878;SDS011;38747;53.140;6.498;2022-08-24T06:58:13;36.15;;;28.17;;
52878;SDS011;38747;53.140;6.498;2022-08-24T07:00:38;36.30;;;27.93;;
52878;SDS011;38747;53.140;6.498;2022-08-24T07:03:04;40.15;;;29.35;;
52878;SDS011;38747;53.140;6.498;2022-08-24T07:05:30;38.30;;;28.73;;
52878;SDS011;38747;53.140;6.498;2022-08-24T07:07:56;33.20;;;28.07;;
52878;SDS011;38747;53.140;6.498;2022-08-24T07:10:23;36.03;;;27.73;;
52878;SDS011;38747;53.140;6.498;2022-08-24T07:12:49;36.63;;;28.20;;
52878;SDS011;38747;53.140;6.498;2022-08-24T07:15:15;36.10;;;27.27;;
52878;SDS011;38747;53.140;6.498;2022-08-24T07:17:40;31.83;;;25.87;;
52878;SDS011;38747;53.140;6.498;2022-08-24T07:20:06;32.85;;;25.38;;
52878;SDS011;38747;53.140;6.498;2022-08-24T07:22:33;30.70;;;25.13;;
52878;SDS011;38747;53.140;6.498;2022-08-24T07:24:58;28.87;;;22.33;;
52878;SDS011;38747;53.140;6.498;2022-08-24T07:27:24;28.77;;;22.08;;
52878;SDS011;38747;53.140;6.498;2022-08-24T07:29:52;23.97;;;19.93;;
52878;SDS011;38747;53.140;6.498;2022-08-24T07:32:18;21.88;;;17.55;;
52878;SDS011;38747;53.140;6.498;2022-08-24T07:34:44;22.77;;;18.30;;
52878;SDS011;38747;53.140;6.498;2022-08-24T07:37:10;21.83;;;16.97;;
52878;SDS011;38747;53.140;6.498;2022-08-24T07:39:36;24.88;;;18.60;;
52878;SDS011;38747;53.140;6.498;2022-08-24T07:42:02;22.98;;;17.40;;
52878;SDS011;38747;53.140;6.498;2022-08-24T07:44:28;23.85;;;17.00;;
52878;SDS011;38747;53.140;6.498;2022-08-24T07:46:55;21.57;;;17.90;;
52878;SDS011;38747;53.140;6.498;2022-08-24T07:49:21;23.65;;;18.73;;
52878;SDS011;38747;53.140;6.498;2022-08-24T07:51:47;24.08;;;17.67;;
52878;SDS011;38747;53.140;6.498;2022-08-24T07:54:13;22.60;;;17.23;;
52878;SDS011;38747;53.140;6.498;2022-08-24T07:56:40;19.52;;;15.82;;
52878;SDS011;38747;53.140;6.498;2022-08-24T07:59:06;17.83;;;13.75;;
52878;SDS011;38747;53.140;6.498;2022-08-24T08:01:32;22.23;;;15.10;;
52878;SDS011;38747;53.140;6.498;2022-08-24T08:03:58;18.02;;;13.80;;
52878;SDS011;38747;53.140;6.498;2022-08-24T08:06:23;17.45;;;12.95;;
52878;SDS011;38747;53.140;6.498;2022-08-24T08:08:49;17.97;;;13.43;;
52878;SDS011;38747;53.140;6.498;2022-08-24T08:11:15;19.75;;;14.65;;
52878;SDS011;38747;53.140;6.498;2022-08-24T08:13:40;15.60;;;11.60;;
52878;SDS011;38747;53.140;6.498;2022-08-24T08:16:06;15.20;;;10.85;;
52878;SDS011;38747;53.140;6.498;2022-08-24T08:18:32;17.57;;;12.07;;
52878;SDS011;38747;53.140;6.498;2022-08-24T08:20:58;19.02;;;12.07;;
52878;SDS011;38747;53.140;6.498;2022-08-24T08:23:25;13.43;;;9.98;;
52878;SDS011;38747;53.140;6.498;2022-08-24T08:26:14;15.35;;;11.32;;
52878;SDS011;38747;53.140;6.498;2022-08-24T08:28:42;17.63;;;12.15;;
52878;SDS011;38747;53.140;6.498;2022-08-24T08:31:09;17.87;;;11.00;;
52878;SDS011;38747;53.140;6.498;2022-08-24T08:33:34;16.88;;;12.50;;
52878;SDS011;38747;53.140;6.498;2022-08-24T08:36:11;14.70;;;11.30;;
52878;SDS011;38747;53.140;6.498;2022-08-24T08:38:39;14.10;;;9.40;;
52878;SDS011;38747;53.140;6.498;2022-08-24T08:43:47;17.13;;;11.25;;
52878;SDS011;38747;53.140;6.498;2022-08-24T08:46:26;14.40;;;9.17;;
52878;SDS011;38747;53.140;6.498;2022-08-24T08:51:41;18.20;;;9.25;;
52878;SDS011;38747;53.140;6.498;2022-08-24T09:17:03;12.63;;;8.32;;
52878;SDS011;38747;53.140;6.498;2022-08-24T09:22:38;13.95;;;9.65;;
52878;SDS011;38747;53.140;6.498;2022-08-24T09:25:23;13.40;;;8.85;;
52878;SDS011;38747;53.140;6.498;2022-08-24T09:30:51;13.73;;;6.13;;
52878;SDS011;38747;53.140;6.498;2022-08-24T09:33:38;8.32;;;4.97;;
52878;SDS011;38747;53.140;6.498;2022-08-24T09:49:57;8.52;;;3.78;;
52878;SDS011;38747;53.140;6.498;2022-08-24T09:56:00;6.23;;;2.80;;
52878;SDS011;38747;53.140;6.498;2022-08-24T09:58:49;6.82;;;3.00;;
52878;SDS011;38747;53.140;6.498;2022-08-24T10:01:38;7.25;;;2.80;;
52878;SDS011;38747;53.140;6.498;2022-08-24T10:07:16;7.88;;;2.90;;
52878;SDS011;38747;53.140;6.498;2022-08-24T10:12:51;5.05;;;2.80;;
52878;SDS011;38747;53.140;6.498;2022-08-24T10:15:57;5.47;;;2.80;;
52878;SDS011;38747;53.140;6.498;2022-08-24T10:21:34;5.82;;;2.60;;
52878;SDS011;38747;53.140;6.498;2022-08-24T10:29:59;9.00;;;3.20;;
52878;SDS011;38747;53.140;6.498;2022-08-24T10:42:23;6.88;;;2.92;;
52878;SDS011;38747;53.140;6.498;2022-08-24T10:48:33;5.95;;;2.60;;
52878;SDS011;38747;53.140;6.498;2022-08-24T10:51:08;6.53;;;2.70;;
52878;SDS011;38747;53.140;6.498;2022-08-24T10:54:06;6.10;;;2.63;;
52878;SDS011;38747;53.140;6.498;2022-08-24T10:56:57;5.50;;;2.80;;
52878;SDS011;38747;53.140;6.498;2022-08-24T11:00:12;5.03;;;2.28;;
52878;SDS011;38747;53.140;6.498;2022-08-24T11:02:40;4.07;;;1.80;;
52878;SDS011;38747;53.140;6.498;2022-08-24T11:05:16;4.53;;;2.10;;
52878;SDS011;38747;53.140;6.498;2022-08-24T11:07:56;4.53;;;1.93;;
52878;SDS011;38747;53.140;6.498;2022-08-24T11:10:30;5.55;;;2.70;;
52878;SDS011;38747;53.140;6.498;2022-08-24T11:15:46;5.63;;;2.20;;
52878;SDS011;38747;53.140;6.498;2022-08-24T11:18:19;6.18;;;2.40;;
52878;SDS011;38747;53.140;6.498;2022-08-24T11:20:48;6.40;;;2.37;;
52878;SDS011;38747;53.140;6.498;2022-08-24T11:23:19;5.47;;;2.58;;
52878;SDS011;38747;53.140;6.498;2022-08-24T11:25:52;5.35;;;2.33;;
52878;SDS011;38747;53.140;6.498;2022-08-24T11:31:34;4.53;;;1.88;;
52878;SDS011;38747;53.140;6.498;2022-08-24T11:34:06;6.37;;;1.90;;
52878;SDS011;38747;53.140;6.498;2022-08-24T11:36:39;6.55;;;2.17;;
52878;SDS011;38747;53.140;6.498;2022-08-24T11:41:35;5.05;;;2.20;;
52878;SDS011;38747;53.140;6.498;2022-08-24T11:57:51;4.95;;;2.47;;
52878;SDS011;38747;53.140;6.498;2022-08-24T12:00:35;10.03;;;2.50;;
52878;SDS011;38747;53.140;6.498;2022-08-24T12:03:22;5.18;;;2.45;;
52878;SDS011;38747;53.140;6.498;2022-08-24T12:06:12;652.67;;;71.68;;
52878;SDS011;38747;53.140;6.498;2022-08-24T12:08:55;6.53;;;1.60;;
52878;SDS011;38747;53.140;6.498;2022-08-24T12:11:43;4.93;;;2.15;;
52878;SDS011;38747;53.140;6.498;2022-08-24T12:17:25;4.05;;;1.98;;
52878;SDS011;38747;53.140;6.498;2022-08-24T12:22:55;4.65;;;2.10;;
52878;SDS011;38747;53.140;6.498;2022-08-24T12:25:25;5.15;;;2.13;;
52878;SDS011;38747;53.140;6.498;2022-08-24T12:28:12;4.80;;;2.00;;
52878;SDS011;38747;53.140;6.498;2022-08-24T12:30:41;4.65;;;2.17;;
52878;SDS011;38747;53.140;6.498;2022-08-24T12:33:08;4.40;;;2.10;;
52878;SDS011;38747;53.140;6.498;2022-08-24T12:35:40;5.72;;;2.60;;
52878;SDS011;38747;53.140;6.498;2022-08-24T12:38:23;4.60;;;2.22;;
52878;SDS011;38747;53.140;6.498;2022-08-24T12:41:02;5.97;;;2.20;;
52878;SDS011;38747;53.140;6.498;2022-08-24T12:43:44;4.75;;;2.05;;
52878;SDS011;38747;53.140;6.498;2022-08-24T12:46:14;4.97;;;2.00;;
52878;SDS011;38747;53.140;6.498;2022-08-24T12:54:12;5.00;;;1.73;;
52878;SDS011;38747;53.140;6.498;2022-08-24T12:59:37;3.95;;;1.85;;
52878;SDS011;38747;53.140;6.498;2022-08-24T13:04:42;3.67;;;1.73;;
52878;SDS011;38747;53.140;6.498;2022-08-24T13:09:45;5.72;;;2.00;;
52878;SDS011;38747;53.140;6.498;2022-08-24T13:17:47;6.15;;;1.80;;
52878;SDS011;38747;53.140;6.498;2022-08-24T13:20:17;3.70;;;1.83;;
52878;SDS011;38747;53.140;6.498;2022-08-24T13:23:03;4.43;;;1.92;;
52878;SDS011;38747;53.140;6.498;2022-08-24T13:39:22;4.95;;;2.20;;
52878;SDS011;38747;53.140;6.498;2022-08-24T13:42:09;4.55;;;2.30;;
52878;SDS011;38747;53.140;6.498;2022-08-24T13:56:24;5.28;;;1.77;;
52878;SDS011;38747;53.140;6.498;2022-08-24T14:07:48;4.32;;;1.65;;
52878;SDS011;38747;53.140;6.498;2022-08-24T14:11:31;4.68;;;2.00;;
52878;SDS011;38747;53.140;6.498;2022-08-24T14:19:24;3.88;;;2.00;;
52878;SDS011;38747;53.140;6.498;2022-08-24T14:25:00;6.05;;;1.80;;
52878;SDS011;38747;53.140;6.498;2022-08-24T14:28:20;3.55;;;1.70;;
52878;SDS011;38747;53.140;6.498;2022-08-24T14:31:20;4.33;;;1.70;;
52878;SDS011;38747;53.140;6.498;2022-08-24T14:37:32;3.42;;;1.50;;
52878;SDS011;38747;53.140;6.498;2022-08-24T14:39:54;4.10;;;1.70;;
52878;SDS011;38747;53.140;6.498;2022-08-24T14:42:40;3.67;;;1.73;;
52878;SDS011;38747;53.140;6.498;2022-08-24T14:48:28;4.20;;;1.70;;
52878;SDS011;38747;53.140;6.498;2022-08-24T14:54:15;4.18;;;2.00;;
52878;SDS011;38747;53.140;6.498;2022-08-24T15:08:06;3.90;;;1.80;;
52878;SDS011;38747;53.140;6.498;2022-08-24T15:10:41;4.05;;;1.80;;
52878;SDS011;38747;53.140;6.498;2022-08-24T15:16:02;4.68;;;1.67;;
52878;SDS011;38747;53.140;6.498;2022-08-24T15:29:35;4.90;;;2.10;;
52878;SDS011;38747;53.140;6.498;2022-08-24T15:32:16;5.28;;;2.20;;
52878;SDS011;38747;53.140;6.498;2022-08-24T15:34:44;5.65;;;2.20;;
52878;SDS011;38747;53.140;6.498;2022-08-24T15:37:30;4.20;;;2.03;;
52878;SDS011;38747;53.140;6.498;2022-08-24T15:39:58;5.75;;;2.53;;
52878;SDS011;38747;53.140;6.498;2022-08-24T15:42:25;4.72;;;2.50;;
52878;SDS011;38747;53.140;6.498;2022-08-24T15:44:53;7.90;;;2.97;;
52878;SDS011;38747;53.140;6.498;2022-08-24T15:47:31;7.05;;;3.47;;
52878;SDS011;38747;53.140;6.498;2022-08-24T15:50:05;6.13;;;3.40;;
52878;SDS011;38747;53.140;6.498;2022-08-24T15:55:06;6.43;;;3.60;;
52878;SDS011;38747;53.140;6.498;2022-08-24T15:57:39;5.68;;;3.55;;
52878;SDS011;38747;53.140;6.498;2022-08-24T16:02:33;8.83;;;4.03;;
52878;SDS011;38747;53.140;6.498;2022-08-24T16:08:05;7.38;;;4.10;;
52878;SDS011;38747;53.140;6.498;2022-08-24T16:10:35;6.57;;;3.92;;
52878;SDS011;38747;53.140;6.498;2022-08-24T16:18:48;8.35;;;5.00;;
52878;SDS011;38747;53.140;6.498;2022-08-24T16:27:09;9.25;;;4.82;;
52878;SDS011;38747;53.140;6.498;2022-08-24T16:32:19;8.90;;;5.07;;
52878;SDS011;38747;53.140;6.498;2022-08-24T16:35:35;8.65;;;4.90;;
52878;SDS011;38747;53.140;6.498;2022-08-24T16:37:35;8.23;;;5.15;;
52878;SDS011;38747;53.140;6.498;2022-08-24T16:40:01;7.97;;;4.70;;
52878;SDS011;38747;53.140;6.498;2022-08-24T16:42:29;8.43;;;4.95;;
52878;SDS011;38747;53.140;6.498;2022-08-24T16:44:55;10.52;;;5.50;;
52878;SDS011;38747;53.140;6.498;2022-08-24T16:47:23;7.82;;;5.40;;
52878;SDS011;38747;53.140;6.498;2022-08-24T16:49:50;10.70;;;5.50;;
52878;SDS011;38747;53.140;6.498;2022-08-24T16:52:16;8.90;;;5.20;;
52878;SDS011;38747;53.140;6.498;2022-08-24T16:54:43;9.93;;;4.80;;
52878;SDS011;38747;53.140;6.498;2022-08-24T16:57:11;9.88;;;5.07;;
52878;SDS011;38747;53.140;6.498;2022-08-24T16:59:40;8.33;;;4.40;;
52878;SDS011;38747;53.140;6.498;2022-08-24T17:02:09;8.75;;;4.75;;
52878;SDS011;38747;53.140;6.498;2022-08-24T17:04:36;8.00;;;4.80;;
52878;SDS011;38747;53.140;6.498;2022-08-24T17:07:03;6.70;;;4.07;;
52878;SDS011;38747;53.140;6.498;2022-08-24T17:09:32;7.10;;;4.70;;
52878;SDS011;38747;53.140;6.498;2022-08-24T17:12:03;9.57;;;4.87;;
52878;SDS011;38747;53.140;6.498;2022-08-24T17:14:29;10.25;;;5.10;;
52878;SDS011;38747;53.140;6.498;2022-08-24T17:16:56;9.57;;;4.90;;
52878;SDS011;38747;53.140;6.498;2022-08-24T17:19:22;9.55;;;5.82;;
52878;SDS011;38747;53.140;6.498;2022-08-24T17:21:51;8.50;;;5.93;;
52878;SDS011;38747;53.140;6.498;2022-08-24T17:24:18;9.57;;;5.50;;
52878;SDS011;38747;53.140;6.498;2022-08-24T17:26:46;10.85;;;5.68;;
52878;SDS011;38747;53.140;6.498;2022-08-24T17:29:12;8.70;;;5.40;;
52878;SDS011;38747;53.140;6.498;2022-08-24T17:31:37;9.00;;;5.20;;
52878;SDS011;38747;53.140;6.498;2022-08-24T17:34:04;9.45;;;5.00;;
52878;SDS011;38747;53.140;6.498;2022-08-24T17:36:31;10.67;;;5.53;;
52878;SDS011;38747;53.140;6.498;2022-08-24T17:38:57;11.02;;;5.90;;
52878;SDS011;38747;53.140;6.498;2022-08-24T17:41:25;9.88;;;6.07;;
52878;SDS011;38747;53.140;6.498;2022-08-24T17:43:51;11.60;;;5.57;;
52878;SDS011;38747;53.140;6.498;2022-08-24T17:46:17;9.95;;;5.70;;
52878;SDS011;38747;53.140;6.498;2022-08-24T17:48:44;9.90;;;5.68;;
52878;SDS011;38747;53.140;6.498;2022-08-24T17:51:10;8.98;;;5.80;;
52878;SDS011;38747;53.140;6.498;2022-08-24T17:53:37;9.73;;;6.20;;
52878;SDS011;38747;53.140;6.498;2022-08-24T17:56:03;9.77;;;5.30;;
52878;SDS011;38747;53.140;6.498;2022-08-24T17:58:30;8.88;;;5.72;;
52878;SDS011;38747;53.140;6.498;2022-08-24T18:00:56;10.07;;;5.60;;
52878;SDS011;38747;53.140;6.498;2022-08-24T18:03:22;7.97;;;5.35;;
52878;SDS011;38747;53.140;6.498;2022-08-24T18:05:48;10.07;;;5.47;;
52878;SDS011;38747;53.140;6.498;2022-08-24T18:08:13;9.80;;;5.63;;
52878;SDS011;38747;53.140;6.498;2022-08-24T18:10:39;10.32;;;5.63;;
52878;SDS011;38747;53.140;6.498;2022-08-24T18:13:05;8.57;;;5.43;;
52878;SDS011;38747;53.140;6.498;2022-08-24T18:15:33;7.60;;;5.90;;
52878;SDS011;38747;53.140;6.498;2022-08-24T18:18:00;9.70;;;5.80;;
52878;SDS011;38747;53.140;6.498;2022-08-24T18:20:28;9.30;;;5.95;;
52878;SDS011;38747;53.140;6.498;2022-08-24T18:23:00;9.23;;;5.83;;
52878;SDS011;38747;53.140;6.498;2022-08-24T18:25:26;9.80;;;5.63;;
52878;SDS011;38747;53.140;6.498;2022-08-24T18:27:54;10.25;;;5.97;;
52878;SDS011;38747;53.140;6.498;2022-08-24T18:30:23;9.20;;;5.85;;
52878;SDS011;38747;53.140;6.498;2022-08-24T18:32:53;10.20;;;5.85;;
52878;SDS011;38747;53.140;6.498;2022-08-24T18:35:19;10.17;;;6.27;;
52878;SDS011;38747;53.140;6.498;2022-08-24T18:37:45;11.02;;;5.63;;